This is the latest recevied weather packets stored in our database for station/object N7YET. If no packets are shown the sender has not sent any weather packets the latest 10 day(s).
| Time | Temp. | Humidity | Pressure | Rain* | Wind** | Luminosity | Snow |
|---|---|---|---|---|---|---|---|
| 1777515986 | 6.67° C | 50% | 1231.9 hPa | 0 mm | - | - | - |
| 1777515386 | 7.22° C | 48% | 1231.9 hPa | 0 mm | - | - | - |
| 1777514785 | 7.78° C | 49% | 1231.9 hPa | 0 mm | - | - | - |
| 1777514185 | 8.33° C | 50% | 1231.9 hPa | 0 mm | - | - | - |
| 1777513584 | 8.33° C | 50% | 1231.9 hPa | 0 mm | - | - | - |
| 1777512983 | 8.33° C | 53% | 1231.9 hPa | 0 mm | - | - | - |
| 1777512383 | 8.33° C | 53% | 1231.9 hPa | 0 mm | - | - | - |
| 1777511782 | 8.33° C | 53% | 1231.9 hPa | 0 mm | - | - | - |
| 1777511182 | 8.33° C | 52% | 1231.9 hPa | 0 mm | - | - | - |
| 1777510581 | 8.89° C | 51% | 1231.9 hPa | 0 mm | - | - | - |
| 1777509980 | 10° C | 46% | 1231.9 hPa | 0 mm | - | - | - |
| 1777509379 | 10° C | 46% | 1231.9 hPa | 0 mm | - | - | - |
| 1777508779 | 10° C | 46% | 1231.9 hPa | 0 mm | - | - | - |
| 1777508179 | 10° C | 47% | 1231.9 hPa | 0 mm | - | - | - |
| 1777507578 | 10° C | 48% | 1231.9 hPa | 0 mm | - | - | - |
| 1777506977 | 9.44° C | 49% | 1231.9 hPa | 0 mm | - | - | - |
| 1777506376 | 9.44° C | 50% | 1231.9 hPa | 0 mm | - | - | - |
| 1777505776 | 8.89° C | 50% | 1231.9 hPa | 0 mm | - | - | - |
| 1777505175 | 8.33° C | 52% | 1231.9 hPa | 0 mm | - | - | - |
| 1777504575 | 8.33° C | 52% | 1231.9 hPa | 0 mm | - | - | - |
| 1777503974 | 8.89° C | 51% | 1231.9 hPa | 0 mm | - | - | - |
| 1777503374 | 8.33° C | 52% | 1231.9 hPa | 0 mm | - | - | - |
| 1777502773 | 8.89° C | 48% | 1231.9 hPa | 0 mm | - | - | - |
| 1777502172 | 10° C | 46% | 1231.9 hPa | 0 mm | - | - | - |
| 1777501572 | 10.56° C | 43% | 1231.9 hPa | 0 mm | - | - | - |
* Rain latest hour (hover to see other rain measurements)
** Current wind speed in m/s (hover to see current wind gust speed)